createdAt,value
2017-07-25T00:00:08.365Z,90.44
2017-07-25T00:01:18.632Z,90.59
2017-07-25T00:02:28.889Z,91.35
2017-07-25T00:03:39.160Z,91.25
2017-07-25T00:04:49.430Z,91.45
2017-07-25T00:05:59.387Z,91.54
2017-07-25T00:07:09.345Z,91.74
2017-07-25T00:08:22.338Z,91.83
2017-07-25T00:09:31.979Z,91.45
2017-07-25T00:10:42.245Z,91.74
2017-07-25T00:11:52.203Z,91.5
2017-07-25T00:13:01.857Z,91.69
2017-07-25T00:14:14.278Z,92.07
2017-07-25T00:15:24.234Z,92.45
2017-07-25T00:16:34.504Z,93.02
2017-07-25T00:17:44.461Z,92.74
2017-07-25T00:18:54.415Z,92.93
2017-07-25T00:20:04.627Z,93.88
2017-07-25T00:21:14.912Z,94.17
2017-07-25T00:22:24.861Z,93.6
2017-07-25T00:23:34.814Z,93.6
2017-07-25T00:24:45.088Z,93.98
2017-07-25T00:25:55.660Z,94.46
2017-07-25T00:27:05.928Z,96.56
2017-07-25T00:28:15.881Z,95.22
2017-07-25T00:29:25.834Z,94.65
2017-07-25T00:30:35.791Z,95.32
2017-07-25T00:31:46.382Z,95.32
2017-07-25T00:32:56.655Z,95.89
2017-07-25T00:34:06.924Z,96.27
2017-07-25T00:35:17.193Z,97.71
2017-07-25T00:36:26.849Z,97.42
2017-07-25T00:37:37.274Z,97.08
2017-07-25T00:38:47.233Z,96.8
2017-07-25T00:39:57.503Z,96.61
2017-07-25T00:41:07.784Z,97.18
2017-07-25T00:42:17.425Z,96.51
2017-07-25T00:43:27.896Z,95.94
2017-07-25T00:44:38.169Z,94.98
2017-07-25T00:45:48.124Z,94.89
2017-07-25T00:46:58.077Z,94.7
2017-07-25T00:48:08.031Z,93.65
2017-07-25T00:49:17.825Z,93.74
2017-07-25T00:50:28.095Z,93.36
2017-07-25T00:51:38.371Z,94.02
2017-07-25T00:52:48.635Z,93.45
2017-07-25T00:53:58.896Z,93.26
2017-07-25T00:55:09.319Z,93.55
2017-07-25T00:56:19.591Z,93.74
2017-07-25T00:57:29.241Z,94.02
2017-07-25T00:58:39.518Z,93.74
2017-07-25T00:59:49.785Z,94.22
2017-07-25T01:01:00.161Z,94.02
2017-07-25T01:02:10.116Z,94.12
2017-07-25T01:03:20.382Z,93.84
2017-07-25T01:04:30.343Z,94.74
2017-07-25T01:05:40.619Z,94.17
2017-07-25T01:06:50.721Z,94.55
2017-07-25T01:08:00.047Z,94.46
2017-07-25T01:09:10.313Z,94.74
2017-07-25T01:10:20.582Z,94.27
2017-07-25T01:11:30.852Z,94.07
2017-07-25T01:12:41.056Z,93.98
2017-07-25T01:13:51.325Z,94.36
2017-07-25T01:15:01.593Z,94.17
2017-07-25T01:16:11.549Z,94.74
2017-07-25T01:17:21.500Z,94.17
2017-07-25T01:18:31.870Z,94.41
2017-07-25T01:19:42.139Z,94.6
2017-07-25T01:20:52.400Z,95.17
2017-07-25T01:22:02.356Z,95.56
2017-07-25T01:23:11.999Z,95.65
2017-07-25T01:24:22.211Z,96.32
2017-07-25T01:25:32.479Z,95.75
2017-07-25T01:26:42.749Z,96.32
2017-07-25T01:27:53.019Z,97.47
2017-07-25T01:29:02.978Z,99.37
2017-07-25T01:30:13.349Z,99.47
2017-07-25T01:31:23.612Z,99.99
2017-07-25T01:32:33.876Z,99.99
2017-07-25T01:33:43.832Z,99.9
2017-07-25T01:34:53.788Z,99.04
2017-07-25T01:36:04.214Z,99.04
2017-07-25T01:37:13.865Z,98.18
2017-07-25T01:38:24.135Z,99.04
2017-07-25T01:39:34.399Z,98.61
2017-07-25T01:40:44.677Z,98.23
2017-07-25T01:41:54.943Z,98.23
2017-07-25T01:43:04.899Z,98.42
2017-07-25T01:44:15.169Z,98.04
2017-07-25T01:45:25.464Z,98.13
2017-07-25T01:46:35.416Z,98.13
2017-07-25T01:47:45.700Z,97.18
2017-07-25T01:48:55.973Z,98.23
2017-07-25T01:50:06.240Z,97.37
2017-07-25T01:51:16.511Z,97.28
2017-07-25T01:52:26.787Z,97.28
2017-07-25T01:53:36.423Z,97.37
2017-07-25T01:54:46.378Z,97.66
2017-07-25T01:55:56.645Z,97.66
2017-07-25T01:57:06.284Z,97.75
2017-07-25T01:58:15.928Z,97.47
2017-07-25T01:59:26.200Z,97.18
2017-07-25T02:00:36.476Z,97.56
2017-07-25T02:01:46.745Z,97.66
2017-07-25T02:02:57.017Z,97.47
2017-07-25T02:04:07.287Z,97.18
2017-07-25T02:05:17.556Z,97.37
2017-07-25T02:06:27.819Z,97.66
2017-07-25T02:07:38.087Z,97.37
2017-07-25T02:08:48.354Z,97.94
2017-07-25T02:09:58.626Z,97.28
2017-07-25T02:11:10.836Z,97.94
2017-07-25T02:12:20.472Z,97.75
2017-07-25T02:13:30.738Z,98.23
2017-07-25T02:14:41.006Z,97.94
2017-07-25T02:15:50.955Z,98.33
2017-07-25T02:17:01.226Z,97.66
2017-07-25T02:18:11.503Z,97.94
2017-07-25T02:19:21.461Z,98.04
2017-07-25T02:20:31.414Z,97.94
2017-07-25T02:21:41.682Z,97.85
2017-07-25T02:22:51.951Z,97.85
2017-07-25T02:24:01.900Z,97.94
2017-07-25T02:25:11.856Z,97.85
2017-07-25T02:26:21.813Z,98.23
2017-07-25T02:27:32.081Z,97.94
2017-07-25T02:28:42.351Z,97.75
2017-07-25T02:29:52.305Z,97.28
2017-07-25T02:31:01.946Z,97.28
2017-07-25T02:32:12.223Z,96.89
2017-07-25T02:33:22.184Z,97.08
2017-07-25T02:34:32.459Z,96.7
2017-07-25T02:35:42.416Z,97.47
2017-07-25T02:36:52.687Z,97.94
2017-07-25T02:38:02.962Z,98.23
2017-07-25T02:39:13.235Z,98.04
2017-07-25T02:40:23.506Z,98.33
2017-07-25T02:41:33.460Z,98.23
2017-07-25T02:42:43.100Z,99.09
2017-07-25T02:43:53.365Z,98.71
2017-07-25T02:45:03.632Z,98.52
2017-07-25T02:46:13.905Z,98.71
2017-07-25T02:47:24.171Z,98.99
2017-07-25T02:48:34.443Z,98.9
2017-07-25T02:49:43.775Z,99.66
2017-07-25T02:50:53.419Z,99.57
2017-07-25T02:52:03.380Z,99.48
2017-07-25T02:53:13.336Z,99.48
2017-07-25T02:54:23.293Z,99.95
2017-07-25T02:55:33.563Z,99.57
2017-07-25T02:56:43.837Z,99.95
2017-07-25T02:57:54.126Z,99.85
2017-07-25T02:59:04.410Z,99.19
2017-07-25T03:00:14.677Z,98.8
2017-07-25T03:01:24.320Z,98.52
2017-07-25T03:02:34.594Z,97.85
2017-07-25T03:03:44.879Z,96.61
2017-07-25T03:04:54.829Z,97.08
2017-07-25T03:06:04.792Z,96.99
2017-07-25T03:07:15.061Z,96.8
2017-07-25T03:08:25.014Z,96.8
2017-07-25T03:09:34.657Z,97.89
2017-07-25T03:10:44.615Z,98.85
2017-07-25T03:11:54.885Z,98.85
2017-07-25T03:13:04.838Z,98.37
2017-07-25T03:14:15.110Z,98.28
2017-07-25T03:15:25.376Z,99.52
2017-07-25T03:16:35.644Z,99.85
2017-07-25T03:17:45.915Z,99.99
2017-07-25T03:18:56.204Z,99.99
2017-07-25T03:20:06.169Z,99.99
2017-07-25T03:21:16.445Z,99.99
2017-07-25T03:22:26.711Z,99.99
2017-07-25T03:23:36.978Z,99.99
2017-07-25T03:24:46.619Z,99.99
2017-07-25T03:25:56.890Z,99.99
2017-07-25T03:27:07.158Z,99.99
2017-07-25T03:28:16.795Z,99.99
2017-07-25T03:29:27.069Z,99.99
2017-07-25T03:30:37.029Z,99.99
2017-07-25T03:31:47.315Z,99.99
2017-07-25T03:32:57.584Z,99.99
2017-07-25T03:34:07.534Z,99.99
2017-07-25T03:35:17.803Z,99.99
2017-07-25T03:36:27.760Z,99.99
2017-07-25T03:37:37.725Z,99.99
2017-07-25T03:38:48.002Z,99.99
2017-07-25T03:39:58.265Z,99.99
2017-07-25T03:41:07.914Z,99.99
2017-07-25T03:42:18.180Z,99.99
2017-07-25T03:43:27.820Z,99.99
2017-07-25T03:44:38.087Z,99.99
2017-07-25T03:45:48.370Z,99.99
2017-07-25T03:46:58.644Z,99.99
2017-07-25T03:48:08.915Z,99.99
2017-07-25T03:49:18.877Z,99.99
2017-07-25T03:50:28.833Z,99.99
2017-07-25T03:51:39.109Z,99.99
2017-07-25T03:52:49.375Z,99.99
2017-07-25T03:53:59.668Z,99.99
2017-07-25T03:55:09.936Z,99.99
2017-07-25T03:56:19.580Z,99.99
2017-07-25T03:57:29.856Z,99.99
2017-07-25T03:58:39.815Z,99.99
2017-07-25T03:59:50.080Z,99.52
2017-07-25T04:01:00.350Z,99.14
2017-07-25T04:02:10.618Z,99.43
2017-07-25T04:03:20.260Z,99.62
2017-07-25T04:04:30.559Z,99.99
2017-07-25T04:05:40.197Z,99.04
2017-07-25T04:06:50.474Z,99.62
2017-07-25T04:08:00.744Z,98.47
2017-07-25T04:09:10.077Z,99.62
2017-07-25T04:10:20.035Z,99.9
2017-07-25T04:11:30.314Z,98.85
2017-07-25T04:12:40.598Z,99.52
2017-07-25T04:13:50.875Z,98.75
2017-07-25T04:15:00.833Z,98.75
2017-07-25T04:16:11.108Z,99.99
2017-07-25T04:17:21.061Z,99.99
2017-07-25T04:18:31.341Z,98.95
2017-07-25T04:19:41.618Z,97.99
2017-07-25T04:20:51.257Z,98.38
2017-07-25T04:22:01.215Z,98.18
2017-07-25T04:23:11.489Z,97.99
2017-07-25T04:24:21.762Z,97.99
2017-07-25T04:25:32.030Z,98.38
2017-07-25T04:26:42.307Z,98.52
2017-07-25T04:27:52.577Z,97.23
2017-07-25T04:29:02.537Z,97.99
2017-07-25T04:30:12.800Z,97.52
2017-07-25T04:31:23.070Z,97.08
2017-07-25T04:32:33.382Z,97.18
2017-07-25T04:33:43.656Z,97.66
2017-07-25T04:34:53.629Z,96.7
2017-07-25T04:36:03.594Z,96.7
2017-07-25T04:37:13.866Z,96.89
2017-07-25T04:38:24.136Z,96.99
2017-07-25T04:39:34.097Z,97.56
2017-07-25T04:40:44.058Z,96.7
2017-07-25T04:41:54.329Z,96.61
2017-07-25T04:43:04.602Z,97.08
2017-07-25T04:44:14.879Z,97.08
2017-07-25T04:45:25.170Z,96.42
2017-07-25T04:46:35.438Z,96.51
2017-07-25T04:47:45.395Z,97.08
2017-07-25T04:48:55.668Z,96.42
2017-07-25T04:50:05.621Z,96.61
2017-07-25T04:51:15.908Z,96.42
2017-07-25T04:52:25.879Z,96.61
2017-07-25T04:53:36.151Z,96.32
2017-07-25T04:54:46.429Z,96.99
2017-07-25T04:55:56.696Z,96.61
2017-07-25T04:57:06.967Z,96.42
2017-07-25T04:58:16.923Z,95.65
2017-07-25T04:59:27.195Z,95.56
2017-07-25T05:00:37.151Z,95.46
2017-07-25T05:01:47.423Z,96.32
2017-07-25T05:02:57.695Z,95.84
2017-07-25T05:04:07.659Z,95.84
2017-07-25T05:05:17.622Z,96.32
2017-07-25T05:06:27.260Z,95.84
2017-07-25T05:07:37.537Z,95.84
2017-07-25T05:08:47.807Z,95.84
2017-07-25T05:09:58.076Z,96.22
2017-07-25T05:11:08.069Z,96.42
2017-07-25T05:12:18.340Z,96.32
2017-07-25T05:13:28.609Z,95.7
2017-07-25T05:14:38.902Z,95.07
2017-07-25T05:15:49.178Z,95.22
2017-07-25T05:16:59.469Z,95.12
2017-07-25T05:18:09.740Z,94.74
2017-07-25T05:19:20.014Z,94.65
2017-07-25T05:20:30.283Z,93.88
2017-07-25T05:21:40.247Z,94.74
2017-07-25T05:22:50.517Z,94.45
2017-07-25T05:24:00.470Z,95.79
2017-07-25T05:25:10.741Z,95.03
2017-07-25T05:26:21.015Z,94.26
2017-07-25T05:27:30.653Z,93.88
2017-07-25T05:28:40.922Z,94.17
2017-07-25T05:29:50.882Z,93.79
2017-07-25T05:31:01.159Z,93.59
2017-07-25T05:32:11.113Z,93.4
2017-07-25T05:33:20.456Z,93.3
2017-07-25T05:34:30.421Z,92.44
2017-07-25T05:35:40.376Z,92.63
2017-07-25T05:36:50.677Z,93.5
2017-07-25T05:38:00.948Z,93.21
2017-07-25T05:39:11.229Z,92.83
2017-07-25T05:40:21.498Z,92.73
2017-07-25T05:41:31.767Z,92.63
2017-07-25T05:42:42.046Z,92.73
2017-07-25T05:43:52.314Z,92.4
2017-07-25T05:45:02.595Z,92.54
2017-07-25T05:46:12.875Z,92.78
2017-07-25T05:47:22.833Z,92.49
2017-07-25T05:48:33.101Z,92.35
2017-07-25T05:49:43.056Z,93.35
2017-07-25T05:50:53.326Z,92.3
2017-07-25T05:52:03.288Z,92.16
2017-07-25T05:53:12.931Z,92.01
2017-07-25T05:54:23.209Z,91.92
2017-07-25T05:55:33.479Z,91.44
2017-07-25T05:56:43.756Z,91.34
2017-07-25T05:57:54.025Z,91.25
2017-07-25T05:59:04.313Z,91.15
2017-07-25T06:00:14.588Z,90.58
2017-07-25T06:01:24.548Z,90.09
2017-07-25T06:02:34.502Z,90.29
2017-07-25T06:03:44.773Z,89.9
2017-07-25T06:04:55.048Z,90
2017-07-25T06:06:05.004Z,89.33
2017-07-25T06:07:15.274Z,89.9
2017-07-25T06:08:25.230Z,89.23
2017-07-25T06:09:35.506Z,89.04
2017-07-25T06:10:45.464Z,87.32
2017-07-25T06:11:55.423Z,87.41
2017-07-25T06:13:05.695Z,87.61
2017-07-25T06:14:15.963Z,87.51
2017-07-25T06:15:25.922Z,87.51
2017-07-25T06:16:36.201Z,87.9
2017-07-25T06:17:46.477Z,87.84
2017-07-25T06:18:56.744Z,87.94
2017-07-25T06:20:07.014Z,87.74
2017-07-25T06:21:16.980Z,88.13
2017-07-25T06:22:26.936Z,87.74
2017-07-25T06:23:36.898Z,87.74
2017-07-25T06:24:47.172Z,87.94
2017-07-25T06:25:57.135Z,87.84
2017-07-25T06:27:07.096Z,87.08
2017-07-25T06:28:17.372Z,87.37
2017-07-25T06:29:27.634Z,87.74
2017-07-25T06:30:37.589Z,87.27
2017-07-25T06:31:47.858Z,88.13
2017-07-25T06:32:57.501Z,87.55
2017-07-25T06:34:07.776Z,87.37
2017-07-25T06:35:17.105Z,87.65
2017-07-25T06:36:27.061Z,87.37
2017-07-25T06:37:37.329Z,87.55
2017-07-25T06:38:47.603Z,88.32
2017-07-25T06:39:57.875Z,87.37
2017-07-25T06:41:07.843Z,87.41
2017-07-25T06:42:17.801Z,86.88
2017-07-25T06:43:27.770Z,87.12
2017-07-25T06:44:37.409Z,86.93
2017-07-25T06:45:47.687Z,87.02
2017-07-25T06:46:57.967Z,87.31
2017-07-25T06:48:08.240Z,87.21
2017-07-25T06:49:18.219Z,87.02
2017-07-25T06:50:28.492Z,86.35
2017-07-25T06:51:38.137Z,85.88
2017-07-25T06:52:48.416Z,86.25
2017-07-25T06:53:58.373Z,86.07
2017-07-25T06:55:08.336Z,85.97
2017-07-25T06:56:18.611Z,86.16
2017-07-25T06:57:28.568Z,86.11
2017-07-25T06:58:38.528Z,85.82
2017-07-25T06:59:48.487Z,84.77
2017-07-25T07:00:58.758Z,83.14
2017-07-25T07:02:09.027Z,83.33
2017-07-25T07:03:19.302Z,83.91
2017-07-25T07:04:29.262Z,84.19
2017-07-25T07:05:39.227Z,84.48
2017-07-25T07:06:49.499Z,83.04
2017-07-25T07:07:58.840Z,81.41
2017-07-25T07:09:09.117Z,79.53
2017-07-25T07:10:19.388Z,78.72
2017-07-25T07:11:29.664Z,79.14
2017-07-25T07:12:39.626Z,78.77
2017-07-25T07:13:49.896Z,79.68
2017-07-25T07:14:59.540Z,79.05
2017-07-25T07:16:09.815Z,78.96
2017-07-25T07:17:20.089Z,79.24
2017-07-25T07:18:30.366Z,78.19
2017-07-25T07:19:40.637Z,78.67
2017-07-25T07:20:50.283Z,78.38
2017-07-25T07:22:00.560Z,78.47
2017-07-25T07:23:10.527Z,78
2017-07-25T07:24:20.492Z,78.67
2017-07-25T07:25:30.767Z,79.24
2017-07-25T07:26:41.065Z,77.84
2017-07-25T07:27:51.031Z,77.04
2017-07-25T07:29:01.331Z,76.84
2017-07-25T07:30:11.607Z,77.51
2017-07-25T07:31:21.580Z,76.79
2017-07-25T07:32:31.850Z,77.46
2017-07-25T07:33:42.122Z,77.17
2017-07-25T07:34:51.763Z,77.17
2017-07-25T07:36:02.045Z,76.69
2017-07-25T07:37:12.322Z,76.21
2017-07-25T07:38:22.277Z,76.21
2017-07-25T07:39:32.551Z,75.63
2017-07-25T07:40:42.822Z,75.45
2017-07-25T07:41:52.779Z,75.54
2017-07-25T07:43:02.425Z,76.12
2017-07-25T07:44:12.702Z,75.92
2017-07-25T07:45:22.977Z,75.57
2017-07-25T07:46:32.935Z,74.87
2017-07-25T07:47:43.207Z,74.58
2017-07-25T07:48:53.162Z,74.87
2017-07-25T07:50:03.118Z,75
2017-07-25T07:51:13.077Z,75.54
2017-07-25T07:52:23.346Z,75.82
2017-07-25T07:53:33.297Z,75.57
2017-07-25T07:54:43.573Z,74.71
2017-07-25T07:55:53.853Z,73.75
2017-07-25T07:57:04.130Z,74.04
2017-07-25T07:58:14.083Z,75.77
2017-07-25T07:59:24.038Z,75.77
2017-07-25T08:00:34.326Z,77.01
2017-07-25T08:01:44.599Z,77.01
2017-07-25T08:02:54.580Z,76.25
2017-07-25T08:04:04.851Z,76.15
2017-07-25T08:05:15.128Z,76.44
2017-07-25T08:06:25.088Z,75.57
2017-07-25T08:07:35.354Z,74.94
2017-07-25T08:08:45.629Z,75.52
2017-07-25T08:09:55.898Z,75.81
2017-07-25T08:11:05.540Z,75.13
2017-07-25T08:12:15.815Z,74.65
2017-07-25T08:13:25.778Z,74.37
2017-07-25T08:14:36.051Z,75.32
2017-07-25T08:15:46.329Z,75.04
2017-07-25T08:16:56.288Z,74.75
2017-07-25T08:18:06.562Z,74.94
2017-07-25T08:19:16.834Z,74.85
2017-07-25T08:20:27.110Z,75.23
2017-07-25T08:21:37.064Z,74.65
2017-07-25T08:22:46.708Z,74.94
2017-07-25T08:23:56.666Z,74.27
2017-07-25T08:25:06.365Z,74.46
2017-07-25T08:26:16.650Z,74.27
2017-07-25T08:27:26.924Z,74.17
2017-07-25T08:28:37.200Z,74.6
2017-07-25T08:29:47.491Z,74.21
2017-07-25T08:30:57.762Z,74.4
2017-07-25T08:32:07.721Z,74.11
2017-07-25T08:33:17.680Z,74.21
2017-07-25T08:34:27.951Z,74.21
2017-07-25T08:35:38.234Z,74.69
2017-07-25T08:36:48.193Z,73.15
2017-07-25T08:37:58.150Z,73.15
2017-07-25T08:39:08.119Z,73.25
2017-07-25T08:40:18.078Z,72.58
2017-07-25T08:41:28.350Z,73.15
2017-07-25T08:42:38.312Z,73.54
2017-07-25T08:43:48.585Z,73.83
2017-07-25T08:44:58.227Z,74.11
2017-07-25T08:46:08.197Z,73.25
2017-07-25T08:47:18.484Z,71.81
2017-07-25T08:48:28.442Z,73.15
2017-07-25T08:49:38.722Z,72.67
2017-07-25T08:50:48.996Z,72.67
2017-07-25T08:51:59.278Z,72.23
2017-07-25T08:53:09.561Z,72.09
2017-07-25T08:54:19.520Z,71.04
2017-07-25T08:55:29.474Z,71.84
2017-07-25T08:56:39.771Z,71.65
2017-07-25T08:57:49.729Z,72.03
2017-07-25T08:58:59.691Z,72.32
2017-07-25T09:00:09.655Z,71.55
2017-07-25T09:01:19.940Z,72.23
2017-07-25T09:02:30.218Z,71.94
2017-07-25T09:03:40.526Z,71.46
2017-07-25T09:04:50.482Z,71.94
2017-07-25T09:06:00.750Z,71.08
2017-07-25T09:07:10.712Z,71.94
2017-07-25T09:08:20.985Z,72.23
2017-07-25T09:09:31.285Z,72.8
2017-07-25T09:10:41.562Z,72.61
2017-07-25T09:11:51.525Z,72.52
2017-07-25T09:13:01.797Z,71.88
2017-07-25T09:14:12.076Z,71.78
2017-07-25T09:15:21.721Z,72.13
2017-07-25T09:16:31.992Z,72.45
2017-07-25T09:17:42.260Z,70.53
2017-07-25T09:18:52.222Z,71.49
2017-07-25T09:20:02.494Z,71.78
2017-07-25T09:21:12.456Z,71.11
2017-07-25T09:22:22.732Z,71.11
2017-07-25T09:23:33.007Z,71.69
2017-07-25T09:24:43.312Z,71.97
2017-07-25T09:25:53.290Z,71.78
2017-07-25T09:27:03.250Z,72.07
2017-07-25T09:28:13.538Z,70.92
2017-07-25T09:29:23.809Z,70.82
2017-07-25T09:30:34.087Z,70.15
2017-07-25T09:31:44.056Z,70.53
2017-07-25T09:32:54.015Z,70.62
2017-07-25T09:34:04.300Z,71.49
2017-07-25T09:35:14.587Z,71.01
2017-07-25T09:36:24.550Z,69.51
2017-07-25T09:37:34.508Z,70.37
2017-07-25T09:38:44.782Z,70.66
2017-07-25T09:39:55.060Z,70.28
2017-07-25T09:41:04.716Z,70.56
2017-07-25T09:42:14.990Z,71.43
2017-07-25T09:43:24.945Z,67.97
2017-07-25T09:44:35.220Z,68.35
2017-07-25T09:45:45.493Z,68.35
2017-07-25T09:46:55.455Z,68.06
2017-07-25T09:48:05.736Z,68.58
2017-07-25T09:49:16.009Z,66.94
2017-07-25T09:50:25.344Z,67.42
2017-07-25T09:51:35.624Z,68.38
2017-07-25T09:52:45.615Z,67.61
2017-07-25T09:53:55.897Z,66.85
2017-07-25T09:55:06.171Z,66.36
2017-07-25T09:56:16.453Z,66.17
2017-07-25T09:57:26.729Z,65.59
2017-07-25T09:58:36.064Z,66.75
2017-07-25T09:59:46.348Z,65.43
2017-07-25T10:00:56.318Z,65.72
2017-07-25T10:02:05.967Z,65.63
2017-07-25T10:03:15.926Z,65.24
2017-07-25T10:04:26.203Z,65.91
2017-07-25T10:05:36.479Z,65.33
2017-07-25T10:06:46.750Z,65.05
2017-07-25T10:07:57.020Z,65.05
2017-07-25T10:09:06.982Z,64.69
2017-07-25T10:10:17.260Z,64.79
2017-07-25T10:11:26.904Z,64.59
2017-07-25T10:12:37.178Z,64.63
2017-07-25T10:13:47.454Z,62.7
2017-07-25T10:14:57.728Z,62.99
2017-07-25T10:16:07.380Z,63.09
2017-07-25T10:17:17.669Z,63.57
2017-07-25T10:18:27.940Z,63.7
2017-07-25T10:19:37.907Z,62.44
2017-07-25T10:20:48.195Z,62.63
2017-07-25T10:21:58.472Z,62.66
2017-07-25T10:23:08.440Z,62.28
2017-07-25T10:24:18.420Z,61.51
2017-07-25T10:25:28.689Z,61.8
2017-07-25T10:26:38.963Z,60.18
2017-07-25T10:27:48.924Z,59.41
2017-07-25T10:28:59.214Z,59.31
2017-07-25T10:30:09.492Z,59.31
2017-07-25T10:31:19.452Z,59.99
2017-07-25T10:32:29.729Z,59.83
2017-07-25T10:33:40.007Z,58.57
2017-07-25T10:34:50.283Z,57.7
2017-07-25T10:36:00.562Z,58.47
2017-07-25T10:37:10.526Z,58.28
2017-07-25T10:38:20.803Z,57.79
2017-07-25T10:39:30.777Z,58.4
2017-07-25T10:40:41.053Z,57.92
2017-07-25T10:41:51.339Z,57.82
2017-07-25T10:43:01.625Z,57.18
2017-07-25T10:44:11.906Z,56.11
2017-07-25T10:45:21.869Z,56.5
2017-07-25T10:46:32.149Z,56.21
2017-07-25T10:47:42.114Z,56.4
2017-07-25T10:48:52.395Z,56.5
2017-07-25T10:50:02.351Z,55.92
2017-07-25T10:51:12.003Z,56.6
2017-07-25T10:52:22.279Z,56.11
2017-07-25T10:53:32.241Z,54.69
2017-07-25T10:54:42.517Z,54.98
2017-07-25T10:55:52.796Z,55.1
2017-07-25T10:57:02.757Z,55.78
2017-07-25T10:58:12.091Z,54.13
2017-07-25T10:59:22.058Z,53.36
2017-07-25T11:00:32.340Z,53.26
2017-07-25T11:01:42.614Z,53.07
2017-07-25T11:02:52.899Z,53.45
2017-07-25T11:04:03.181Z,53.55
2017-07-25T11:05:13.142Z,53.36
2017-07-25T11:06:23.418Z,52.42
2017-07-25T11:07:33.695Z,53.87
2017-07-25T11:08:43.972Z,54.35
2017-07-25T11:09:53.941Z,52.32
2017-07-25T11:11:03.907Z,52.61
2017-07-25T11:12:14.205Z,52.12
2017-07-25T11:13:23.852Z,53.36
2017-07-25T11:14:33.503Z,52.97
2017-07-25T11:15:43.780Z,52.97
2017-07-25T11:16:53.754Z,53.17
2017-07-25T11:18:03.086Z,53.09
2017-07-25T11:19:13.370Z,52.51
2017-07-25T11:20:23.337Z,52.9
2017-07-25T11:21:33.298Z,53.19
2017-07-25T11:22:43.573Z,53.09
2017-07-25T11:23:53.560Z,53.19
2017-07-25T11:25:03.529Z,51.84
2017-07-25T11:26:13.807Z,52.32
2017-07-25T11:27:24.106Z,52.42
2017-07-25T11:28:34.382Z,51.84
2017-07-25T11:29:44.343Z,52.03
2017-07-25T11:30:54.310Z,51.16
2017-07-25T11:32:04.276Z,51.54
2017-07-25T11:33:14.246Z,51.84
2017-07-25T11:34:24.225Z,50.7
2017-07-25T11:35:34.194Z,49.73
2017-07-25T11:36:44.481Z,50.41
2017-07-25T11:37:54.755Z,50.04
2017-07-25T11:39:04.722Z,49.19
2017-07-25T11:40:15.001Z,49.22
2017-07-25T11:41:24.656Z,48.39
2017-07-25T11:42:34.940Z,46.37
2017-07-25T11:43:45.226Z,46.78
2017-07-25T11:44:55.511Z,44.4
2017-07-25T11:46:05.480Z,43.44
2017-07-25T11:47:15.452Z,41.42
2017-07-25T11:48:25.732Z,41.93
2017-07-25T11:49:36.012Z,42.63
2017-07-25T11:50:46.302Z,40.5
2017-07-25T11:51:56.286Z,39.45
2017-07-25T11:53:06.258Z,38.28
2017-07-25T11:54:16.544Z,39.76
2017-07-25T11:55:26.515Z,40.47
2017-07-25T11:56:36.481Z,38.82
2017-07-25T11:57:46.767Z,36.79
2017-07-25T11:58:57.055Z,37.67
2017-07-25T12:00:06.716Z,37.77
2017-07-25T12:01:18.810Z,37.88
2017-07-25T12:02:28.787Z,36.82
2017-07-25T12:03:39.076Z,37.02
2017-07-25T12:04:49.358Z,36.94
2017-07-25T12:05:59.650Z,36.25
2017-07-25T12:07:09.941Z,34.9
2017-07-25T12:08:19.913Z,34.8
2017-07-25T12:09:29.568Z,33.92
2017-07-25T12:10:39.550Z,33.72
2017-07-25T12:11:49.834Z,35
2017-07-25T12:12:59.809Z,33.94
2017-07-25T12:14:10.095Z,33.92
2017-07-25T12:15:20.377Z,33.34
2017-07-25T12:16:30.380Z,33.94
2017-07-25T12:17:40.033Z,34.01
2017-07-25T12:18:50.008Z,34
2017-07-25T12:19:59.990Z,34.51
2017-07-25T12:21:09.966Z,33.23
2017-07-25T12:22:19.658Z,32.86
2017-07-25T12:23:29.322Z,33.36
2017-07-25T12:24:39.612Z,33.28
2017-07-25T12:25:49.584Z,31.43
2017-07-25T12:26:59.254Z,31.35
2017-07-25T12:28:09.542Z,31.45
2017-07-25T12:29:19.213Z,31.76
2017-07-25T12:30:29.223Z,30.88
2017-07-25T12:31:39.516Z,30.02
2017-07-25T12:32:49.802Z,29.62
2017-07-25T12:33:59.775Z,28.34
2017-07-25T12:35:10.061Z,29.9
2017-07-25T12:36:20.347Z,28.64
2017-07-25T12:37:30.632Z,30.03
2017-07-25T12:38:40.916Z,28.26
2017-07-25T12:39:51.205Z,28.65
2017-07-25T12:41:01.494Z,28.47
2017-07-25T12:42:11.801Z,28.96
2017-07-25T12:43:21.779Z,29.75
2017-07-25T12:44:32.068Z,28.88
2017-07-25T12:45:42.358Z,27.11
2017-07-25T12:46:52.334Z,25.92
2017-07-25T12:48:02.640Z,27.87
2017-07-25T12:49:12.935Z,27.28
2017-07-25T12:50:22.908Z,28.06
2017-07-25T12:51:33.201Z,27.39
2017-07-25T12:52:43.491Z,27.28
2017-07-25T12:53:53.779Z,27.09
2017-07-25T12:55:04.093Z,27.59
2017-07-25T12:56:14.426Z,27.01
2017-07-25T12:57:24.720Z,27.11
2017-07-25T12:58:34.378Z,25.83
2017-07-25T12:59:44.354Z,25.93
2017-07-25T13:00:54.332Z,26.82
2017-07-25T13:02:04.308Z,27.23
2017-07-25T13:03:14.601Z,27.03
2017-07-25T13:04:24.582Z,26.62
2017-07-25T13:05:34.877Z,26.32
2017-07-25T13:06:44.857Z,25.95
2017-07-25T13:07:54.831Z,26.82
2017-07-25T13:09:04.803Z,26.72
2017-07-25T13:10:14.783Z,26.13
2017-07-25T13:11:24.762Z,26.71
2017-07-25T13:12:35.052Z,26.61
2017-07-25T13:13:45.345Z,26.82
2017-07-25T13:14:55.634Z,26.9
2017-07-25T13:16:05.932Z,25.72
2017-07-25T13:17:15.905Z,25.33
2017-07-25T13:18:26.214Z,25.24
2017-07-25T13:19:36.195Z,25.26
2017-07-25T13:20:46.487Z,25.27
2017-07-25T13:21:56.464Z,24.58
2017-07-25T13:23:06.807Z,23.02
2017-07-25T13:24:16.796Z,24.09
2017-07-25T13:25:26.456Z,23.71
2017-07-25T13:26:36.445Z,23.13
2017-07-25T13:27:46.751Z,23.73
2017-07-25T13:28:57.045Z,23.54
2017-07-25T13:30:07.024Z,23.04
2017-07-25T13:31:17.317Z,23.24
2017-07-25T13:32:27.297Z,23.14
2017-07-25T13:33:37.587Z,22.94
2017-07-25T13:34:47.253Z,22.55
2017-07-25T13:35:57.229Z,22.55
2017-07-25T13:37:07.524Z,22.66
2017-07-25T13:38:17.815Z,21.67
2017-07-25T13:39:27.793Z,22.47
2017-07-25T13:40:39.773Z,21.98
2017-07-25T13:41:49.750Z,22.08
2017-07-25T13:43:00.043Z,22
2017-07-25T13:44:10.022Z,20.61
2017-07-25T13:45:20.001Z,20.61
2017-07-25T13:46:29.979Z,21.2
2017-07-25T13:47:40.271Z,21.3
2017-07-25T13:48:50.248Z,21.4
2017-07-25T13:50:00.541Z,20.72
2017-07-25T13:51:10.834Z,20.7
2017-07-25T13:52:21.123Z,20.61
2017-07-25T13:53:31.412Z,20.7
2017-07-25T13:54:41.702Z,20.12
2017-07-25T13:55:51.680Z,20.52
2017-07-25T13:57:01.656Z,19.73
2017-07-25T13:58:11.944Z,20.51
2017-07-25T13:59:21.922Z,19.43
2017-07-25T14:00:31.897Z,19.33
2017-07-25T14:01:42.198Z,19.34
2017-07-25T14:02:52.180Z,19.73
2017-07-25T14:04:02.157Z,19.54
2017-07-25T14:05:12.147Z,18.55
2017-07-25T14:06:22.436Z,18.95
2017-07-25T14:07:32.410Z,19.45
2017-07-25T14:08:42.390Z,19.16
2017-07-25T14:09:52.688Z,18.96
2017-07-25T14:11:02.670Z,18.28
2017-07-25T14:12:12.958Z,18.48
2017-07-25T14:13:23.263Z,17.79
2017-07-25T14:14:33.563Z,17.79
2017-07-25T14:15:43.856Z,18.08
2017-07-25T14:16:54.148Z,18.58
2017-07-25T14:18:04.440Z,18.18
2017-07-25T14:19:14.428Z,18.09
2017-07-25T14:20:24.729Z,17.6
2017-07-25T14:21:34.393Z,17.5
2017-07-25T14:22:44.687Z,17.4
2017-07-25T14:23:54.673Z,17.8
2017-07-25T14:25:04.659Z,18
2017-07-25T14:26:14.950Z,18.09
2017-07-25T14:27:24.613Z,17.2
2017-07-25T14:28:34.908Z,17.98
2017-07-25T14:29:44.901Z,17.86
2017-07-25T14:30:54.561Z,18.55
2017-07-25T14:32:04.538Z,18.55
2017-07-25T14:33:14.200Z,18.76
2017-07-25T14:34:24.177Z,18.57
2017-07-25T14:35:34.154Z,18.68
2017-07-25T14:36:43.815Z,17.69
2017-07-25T14:37:53.805Z,17.79
2017-07-25T14:39:03.786Z,17.5
2017-07-25T14:40:14.081Z,17.8
2017-07-25T14:41:23.735Z,17.32
2017-07-25T14:42:33.722Z,17.21
2017-07-25T14:43:44.018Z,17.32
2017-07-25T14:44:53.360Z,16.72
2017-07-25T14:46:03.336Z,16.82
2017-07-25T14:47:13.631Z,16.72
2017-07-25T14:48:23.923Z,16.93
2017-07-25T14:49:34.218Z,16.72
2017-07-25T14:50:43.878Z,17.02
2017-07-25T14:51:54.173Z,16.33
2017-07-25T14:53:04.467Z,16.43
2017-07-25T14:54:14.124Z,16.53
2017-07-25T14:55:24.096Z,16.43
2017-07-25T14:56:34.390Z,16.33
2017-07-25T14:57:44.677Z,16.63
2017-07-25T14:58:54.656Z,16.13
2017-07-25T15:00:04.687Z,15.73
2017-07-25T15:01:14.659Z,15.82
2017-07-25T15:02:24.948Z,16.81
2017-07-25T15:03:35.238Z,16.31
2017-07-25T15:04:45.220Z,16.22
2017-07-25T15:05:54.566Z,16.42